Time;durP1;ratioP1;P1;durP2;ratioP2;P2;SDS_P1;SDS_P2;PMS_P1;PMS_P2;Temp;Humidity;BMP_temperature;BMP_pressure;BME280_temperature;BME280_humidity;BME280_pressure;Samples;Min_cycle;Max_cycle;Signal;HPM_P1;HPM_P2
2022/07/11 00:00:16;;;;;;;7.25;6.28;;;;;;;20.57;100.00;100764.41;4975281;28;20027;-76
2022/07/11 00:03:02;;;;;;;9.55;6.85;;;;;;;20.69;100.00;100766.38;4975656;28;20022;-76
2022/07/11 00:05:48;;;;;;;7.22;6.53;;;;;;;20.69;100.00;100765.53;4976228;28;20039;-76
2022/07/11 00:08:33;;;;;;;7.50;6.80;;;;;;;20.63;100.00;100761.41;4962339;28;20113;-77
2022/07/11 00:11:19;;;;;;;9.77;7.30;;;;;;;20.59;100.00;100762.53;4976503;28;20034;-75
2022/07/11 00:14:05;;;;;;;8.50;7.22;;;;;;;20.30;100.00;100766.00;4976168;28;20026;-75
2022/07/11 00:16:55;;;;;;;8.95;7.07;;;;;;;20.50;100.00;100767.53;4962287;28;20027;-75
2022/07/11 00:19:40;;;;;;;8.73;7.82;;;;;;;19.98;100.00;100756.28;4974946;28;20113;-76
2022/07/11 00:22:26;;;;;;;8.82;7.40;;;;;;;20.07;100.00;100763.75;4962179;28;20030;-75
2022/07/11 00:25:12;;;;;;;8.40;7.55;;;;;;;20.11;100.00;100762.66;4961874;28;20361;-75
2022/07/11 00:27:58;;;;;;;7.60;6.75;;;;;;;20.06;100.00;100762.03;4975257;28;20033;-75
2022/07/11 00:30:45;;;;;;;10.00;6.95;;;;;;;19.84;100.00;100761.47;4976385;28;20037;-76
2022/07/11 00:33:30;;;;;;;8.57;7.35;;;;;;;20.14;100.00;100765.16;4975320;28;20042;-76
2022/07/11 00:36:16;;;;;;;7.93;7.03;;;;;;;19.87;100.00;100763.09;4961255;28;20019;-76
2022/07/11 00:39:03;;;;;;;8.55;6.70;;;;;;;19.85;100.00;100768.50;4974619;28;20090;-76
2022/07/11 00:41:48;;;;;;;8.25;7.03;;;;;;;19.81;100.00;100774.09;4975428;28;20034;-76
2022/07/11 00:44:36;;;;;;;8.65;7.03;;;;;;;19.72;100.00;100772.78;4961626;28;20447;-76
2022/07/11 00:47:21;;;;;;;8.15;7.03;;;;;;;19.55;100.00;100775.47;4961809;28;20105;-76
2022/07/11 00:50:08;;;;;;;9.48;7.03;;;;;;;19.45;100.00;100778.72;4974524;28;20023;-77
2022/07/11 00:52:55;;;;;;;12.20;7.15;;;;;;;19.04;100.00;100778.16;4961811;28;20463;-76
2022/07/11 00:55:41;;;;;;;8.85;7.50;;;;;;;19.24;100.00;100774.53;4974589;28;20129;-76
2022/07/11 00:58:27;;;;;;;7.93;7.10;;;;;;;19.26;100.00;100780.59;4975949;28;20026;-76
2022/07/11 01:01:13;;;;;;;10.85;7.78;;;;;;;19.46;100.00;100775.97;4979052;28;20477;-76
2022/07/11 01:03:59;;;;;;;10.13;7.47;;;;;;;19.56;100.00;100774.53;4965527;28;20035;-76
2022/07/11 01:06:44;;;;;;;8.75;6.97;;;;;;;19.42;100.00;100769.09;4978888;28;20041;-75
2022/07/11 01:09:31;;;;;;;7.68;6.85;;;;;;;19.66;100.00;100765.16;4965145;28;20357;-76
2022/07/11 01:12:17;;;;;;;8.55;6.85;;;;;;;19.83;100.00;100756.22;4965346;28;20027;-76
2022/07/11 01:15:03;;;;;;;9.60;7.85;;;;;;;19.79;100.00;100763.53;4978337;28;20035;-76
2022/07/11 01:17:49;;;;;;;7.55;6.68;;;;;;;19.67;100.00;100761.53;4965177;28;20061;-75
2022/07/11 01:20:35;;;;;;;9.23;6.80;;;;;;;19.69;100.00;100756.97;4978902;28;20030;-76
2022/07/11 01:23:20;;;;;;;9.18;6.38;;;;;;;19.58;100.00;100764.69;4978975;28;20050;-76
2022/07/11 01:26:06;;;;;;;8.48;7.00;;;;;;;19.56;100.00;100769.22;4977754;28;20492;-74
2022/07/11 01:28:55;;;;;;;8.70;6.78;;;;;;;19.45;100.00;100766.25;4965134;28;20031;-76
2022/07/11 01:31:41;;;;;;;8.82;6.88;;;;;;;19.27;100.00;100774.34;4977841;28;20110;-76
2022/07/11 01:34:27;;;;;;;10.00;6.65;;;;;;;19.30;100.00;100772.41;4978261;28;20031;-76
2022/07/11 01:37:13;;;;;;;7.38;6.55;;;;;;;19.14;100.00;100782.06;4978381;28;20019;-76
2022/07/11 01:39:59;;;;;;;8.68;6.40;;;;;;;19.31;100.00;100783.88;4977504;28;20033;-76
2022/07/11 01:42:45;;;;;;;9.30;7.38;;;;;;;19.53;100.00;100777.34;4964453;28;20032;-76
2022/07/11 01:45:31;;;;;;;8.77;6.40;;;;;;;19.49;100.00;100775.78;4977823;28;20058;-76
2022/07/11 01:48:17;;;;;;;7.93;6.93;;;;;;;19.37;100.00;100780.91;4978114;28;20416;-75
2022/07/11 01:51:03;;;;;;;8.48;6.72;;;;;;;19.50;100.00;100776.66;4977157;28;20027;-76
2022/07/11 01:53:48;;;;;;;8.20;6.68;;;;;;;19.33;100.00;100780.19;4976873;28;20042;-76
2022/07/11 01:56:34;;;;;;;7.70;6.47;;;;;;;19.62;100.00;100784.84;4977978;28;20049;-76
2022/07/11 01:59:20;;;;;;;9.07;6.97;;;;;;;19.26;100.00;100789.44;4964393;28;20031;-76
2022/07/11 02:02:06;;;;;;;7.50;6.53;;;;;;;19.35;100.00;100794.28;4963379;28;20373;-76
2022/07/11 02:04:51;;;;;;;8.52;6.65;;;;;;;19.41;100.00;100793.09;4977110;28;20042;-76
2022/07/11 02:10:49;;;;;;;7.65;6.60;;;;;;;19.50;100.00;100804.13;4977695;28;20030;-75
2022/07/11 02:13:35;;;;;;;9.23;7.20;;;;;;;19.42;100.00;100808.09;4977090;28;20102;-75
2022/07/11 02:16:22;;;;;;;7.10;6.40;;;;;;;19.08;100.00;100807.16;4977468;28;20132;-75
2022/07/11 02:19:07;;;;;;;8.50;7.53;;;;;;;19.25;100.00;100805.47;4964326;28;20038;-76
2022/07/11 02:21:53;;;;;;;9.45;7.20;;;;;;;19.27;100.00;100811.53;4977901;28;20085;-75
2022/07/11 02:24:39;;;;;;;7.18;6.45;;;;;;;19.16;100.00;100815.59;4977543;28;20449;-76
2022/07/11 02:27:24;;;;;;;8.93;7.22;;;;;;;19.32;100.00;100812.19;4963603;28;20043;-75
2022/07/11 02:30:11;;;;;;;11.13;6.95;;;;;;;19.39;100.00;100810.91;4976339;28;20026;-76
2022/07/11 02:32:56;;;;;;;9.85;7.28;;;;;;;19.43;100.00;100815.13;4976433;28;20057;-75
2022/07/11 02:35:43;;;;;;;9.70;7.43;;;;;;;19.05;100.00;100819.72;4976642;28;20035;-76
2022/07/11 02:38:29;;;;;;;8.77;7.47;;;;;;;18.94;100.00;100820.25;4963301;28;20027;-76
2022/07/11 02:41:16;;;;;;;8.68;6.95;;;;;;;19.01;100.00;100826.97;4962312;28;20398;-77
2022/07/11 02:44:01;;;;;;;7.88;6.95;;;;;;;18.94;100.00;100832.69;4976291;28;20104;-76
2022/07/11 02:46:47;;;;;;;7.95;6.68;;;;;;;18.79;100.00;100839.63;4976103;28;20026;-77
2022/07/11 02:49:33;;;;;;;10.30;7.38;;;;;;;18.49;100.00;100835.78;4975783;28;20037;-76
2022/07/11 02:52:18;;;;;;;10.13;7.00;;;;;;;18.39;100.00;100831.84;4975698;28;20069;-77
2022/07/11 02:55:05;;;;;;;8.07;7.25;;;;;;;18.79;100.00;100841.41;4975912;28;20051;-76
2022/07/11 02:57:50;;;;;;;9.27;6.90;;;;;;;18.34;100.00;100839.19;4976058;28;20453;-76
2022/07/11 03:00:36;;;;;;;11.48;7.10;;;;;;;18.28;100.00;100843.84;4976799;28;20128;-76
2022/07/11 03:03:22;;;;;;;8.45;6.68;;;;;;;18.38;100.00;100845.19;4976886;28;20046;-76
2022/07/11 03:06:08;;;;;;;11.77;7.32;;;;;;;18.54;100.00;100854.13;4976875;28;20081;-76
2022/07/11 03:08:54;;;;;;;9.23;7.00;;;;;;;18.65;100.00;100862.44;4976341;28;20118;-77
2022/07/11 03:11:39;;;;;;;7.95;6.97;;;;;;;18.66;100.00;100865.00;4961881;28;20478;-77
2022/07/11 03:14:25;;;;;;;9.40;6.13;;;;;;;18.14;100.00;100860.44;4976397;28;20432;-77
2022/07/11 03:17:11;;;;;;;8.10;6.10;;;;;;;18.77;100.00;100864.53;4966187;28;20041;-78
2022/07/11 03:19:57;;;;;;;6.97;6.00;;;;;;;18.95;100.00;100874.22;4986017;28;20027;-76
2022/07/11 03:22:42;;;;;;;8.18;5.85;;;;;;;18.73;100.00;100884.19;4984404;28;20027;-76
2022/07/11 03:25:29;;;;;;;10.15;6.60;;;;;;;18.80;100.00;100875.84;4962768;28;20129;-77
2022/07/11 03:28:15;;;;;;;6.18;5.47;;;;;;;18.86;100.00;100880.00;4975899;28;20046;-77
2022/07/11 03:31:01;;;;;;;8.65;5.45;;;;;;;18.94;100.00;100886.63;4976936;28;20023;-76
2022/07/11 03:33:47;;;;;;;7.50;5.70;;;;;;;18.52;100.00;100877.22;4975774;28;20033;-76
2022/07/11 03:36:33;;;;;;;6.32;5.45;;;;;;;18.91;100.00;100886.81;4976108;28;20026;-77
2022/07/11 03:39:18;;;;;;;7.75;5.50;;;;;;;18.97;100.00;100888.31;4975991;28;20027;-76
2022/07/11 03:42:04;;;;;;;7.43;5.25;;;;;;;18.82;100.00;100887.22;4977215;28;20041;-76
2022/07/11 03:44:51;;;;;;;6.22;4.95;;;;;;;18.88;100.00;100886.94;4975809;28;20034;-76
2022/07/11 03:47:36;;;;;;;7.07;5.95;;;;;;;18.81;100.00;100887.31;4962625;28;20031;-76
2022/07/11 03:50:22;;;;;;;6.95;5.72;;;;;;;19.03;100.00;100885.31;4976283;28;20027;-76
2022/07/11 03:53:08;;;;;;;6.35;5.75;;;;;;;18.90;100.00;100881.56;4975915;28;20101;-76
2022/07/11 03:55:54;;;;;;;7.75;6.32;;;;;;;18.76;100.00;100887.53;4975507;28;20085;-76
2022/07/11 03:58:40;;;;;;;8.23;6.30;;;;;;;18.97;100.00;100880.34;4975929;28;20026;-77
2022/07/11 04:01:25;;;;;;;8.98;5.90;;;;;;;18.78;100.00;100884.81;4975709;28;20042;-77
2022/07/11 04:04:11;;;;;;;13.98;6.93;;;;;;;18.68;100.00;100896.78;4975304;28;20030;-76
2022/07/11 04:06:57;;;;;;;8.20;6.22;;;;;;;18.94;100.00;100899.06;4975693;28;20070;-77
2022/07/11 04:09:43;;;;;;;9.25;7.03;;;;;;;19.51;100.00;100905.94;4975586;28;20475;-77
2022/07/11 04:12:29;;;;;;;8.77;6.57;;;;;;;19.41;100.00;100902.88;4962265;28;20045;-77
2022/07/11 04:15:15;;;;;;;8.65;6.28;;;;;;;19.47;100.00;100899.94;4975583;28;20042;-76
2022/07/11 04:18:01;;;;;;;9.93;7.20;;;;;;;19.29;100.00;100907.97;4962088;28;20118;-76
2022/07/11 04:20:47;;;;;;;13.77;7.15;;;;;;;19.63;100.00;100900.88;4961911;28;20026;-77
2022/07/11 04:26:08;;;;;;;8.95;7.60;;;;;;;19.04;100.00;100897.66;5808707;23;20052;-75
2022/07/11 04:28:53;;;;;;;7.88;7.05;;;;;;;19.43;100.00;100908.13;4957322;28;20027;-77
2022/07/11 04:31:39;;;;;;;10.35;6.78;;;;;;;18.89;100.00;100906.41;4954935;29;20039;-76
2022/07/11 04:34:25;;;;;;;10.80;7.82;;;;;;;18.86;100.00;100909.19;4957301;28;20037;-77
2022/07/11 04:37:11;;;;;;;11.45;7.63;;;;;;;18.96;100.00;100899.84;4960407;29;20361;-77
2022/07/11 04:39:56;;;;;;;7.72;6.60;;;;;;;18.77;100.00;100901.69;4947436;28;20031;-76
2022/07/11 04:42:43;;;;;;;8.60;7.20;;;;;;;18.90;100.00;100908.94;4960360;28;20035;-77
2022/07/11 04:45:29;;;;;;;12.65;6.93;;;;;;;18.99;100.00;100918.28;4959925;29;20038;-77
2022/07/11 04:48:14;;;;;;;11.13;7.65;;;;;;;19.00;100.00;100920.88;4959947;29;20027;-76
2022/07/11 04:51:00;;;;;;;9.82;7.22;;;;;;;18.77;100.00;100928.22;4959377;29;20034;-76
2022/07/11 04:53:46;;;;;;;9.30;6.80;;;;;;;19.04;100.00;100926.88;4946997;28;20031;-77
2022/07/11 04:56:32;;;;;;;12.90;7.63;;;;;;;18.91;100.00;100929.28;4960356;28;20122;-76
2022/07/11 04:59:17;;;;;;;9.60;7.68;;;;;;;19.50;100.00;100934.34;4960209;28;20035;-76
2022/07/11 05:02:03;;;;;;;9.82;7.57;;;;;;;18.79;100.00;100936.97;4959849;28;20102;-75
2022/07/11 05:04:49;;;;;;;9.10;7.28;;;;;;;19.49;100.00;100943.22;4959882;28;20023;-76
2022/07/11 05:07:35;;;;;;;12.00;8.07;;;;;;;19.81;100.00;100936.28;4946029;28;20038;-76
2022/07/11 05:10:21;;;;;;;9.95;7.32;;;;;;;19.39;100.00;100931.34;4959942;28;20034;-77
2022/07/11 05:13:06;;;;;;;11.07;7.20;;;;;;;19.60;100.00;100942.72;4946617;28;20118;-76
2022/07/11 05:15:52;;;;;;;9.32;7.28;;;;;;;20.48;100.00;100945.09;4959345;29;20034;-76
2022/07/11 05:18:38;;;;;;;9.40;6.70;;;;;;;20.60;100.00;100955.06;4959519;28;20023;-76
2022/07/11 05:21:24;;;;;;;8.52;6.60;;;;;;;20.60;100.00;100963.06;4958754;29;20051;-77
2022/07/11 05:24:10;;;;;;;10.73;6.63;;;;;;;21.06;100.00;100955.13;4959884;28;20031;-77
2022/07/11 05:26:56;;;;;;;9.65;6.85;;;;;;;20.77;100.00;100963.84;4945608;28;20142;-76
2022/07/11 05:29:42;;;;;;;13.43;8.48;;;;;;;21.16;100.00;100958.13;4959534;28;20027;-77
2022/07/11 05:32:28;;;;;;;8.98;7.07;;;;;;;21.39;100.00;100953.22;4958799;29;20042;-76
2022/07/11 05:35:13;;;;;;;8.35;6.65;;;;;;;21.73;100.00;100952.09;4946030;28;20046;-77
2022/07/11 05:37:59;;;;;;;7.68;6.47;;;;;;;21.36;100.00;100945.38;4945869;28;20086;-76
2022/07/11 05:40:45;;;;;;;9.70;6.35;;;;;;;20.86;100.00;100944.69;4959043;29;20055;-76
2022/07/11 05:43:31;;;;;;;8.70;6.93;;;;;;;21.12;100.00;100938.78;4957679;28;20449;-76
2022/07/11 05:46:16;;;;;;;9.90;6.40;;;;;;;21.06;100.00;100933.81;4957314;29;20457;-77
2022/07/11 05:49:02;;;;;;;7.38;6.68;;;;;;;20.82;100.00;100942.31;4945825;28;20086;-76
2022/07/11 05:51:48;;;;;;;8.55;6.53;;;;;;;21.34;100.00;100943.75;4959249;28;20035;-76
2022/07/11 05:54:34;;;;;;;8.23;6.40;;;;;;;21.44;100.00;100945.78;4945785;28;20046;-77
2022/07/11 05:57:20;;;;;;;10.15;6.72;;;;;;;21.64;100.00;100950.81;4958438;28;20450;-77
2022/07/11 06:00:07;;;;;;;9.18;5.88;;;;;;;20.88;100.00;100956.13;4958532;29;20027;-76
2022/07/11 06:02:53;;;;;;;7.03;5.80;;;;;;;21.00;100.00;100971.47;4958272;29;20167;-76
2022/07/11 06:05:38;;;;;;;9.55;5.75;;;;;;;20.84;100.00;100975.91;4959165;28;20035;-76
2022/07/11 06:08:43;;;;;;;9.52;5.90;;;;;;;21.20;100.00;100973.00;4958257;29;20089;-76
2022/07/11 06:11:31;;;;;;;8.55;5.68;;;;;;;20.82;100.00;100975.09;4944199;29;20099;-78
2022/07/11 06:14:17;;;;;;;10.32;6.25;;;;;;;20.59;100.00;100986.19;4945059;28;20031;-78
2022/07/11 06:17:02;;;;;;;9.35;6.38;;;;;;;21.01;100.00;100993.66;4958933;28;20156;-77
2022/07/11 06:19:48;;;;;;;8.38;6.25;;;;;;;21.16;100.00;100987.44;4958548;28;20034;-78
2022/07/11 06:22:34;;;;;;;10.15;6.47;;;;;;;20.90;100.00;101001.34;4959335;28;20034;-76
2022/07/11 06:25:20;;;;;;;9.20;5.88;;;;;;;21.20;100.00;101003.19;4944731;28;20386;-77
2022/07/11 06:28:06;;;;;;;8.68;5.85;;;;;;;21.35;100.00;100991.66;4943607;29;20133;-77
2022/07/11 06:30:53;;;;;;;8.50;5.85;;;;;;;21.43;100.00;101008.06;4958015;28;20035;-78
2022/07/11 06:33:39;;;;;;;9.23;5.75;;;;;;;20.93;100.00;101011.88;4942846;28;20022;-76
2022/07/11 06:36:25;;;;;;;7.03;5.53;;;;;;;21.46;100.00;101005.19;4959277;28;20406;-77
2022/07/11 06:39:11;;;;;;;8.23;5.50;;;;;;;21.43;100.00;101001.88;4957393;29;20023;-77
2022/07/11 06:41:56;;;;;;;7.97;5.55;;;;;;;21.81;100.00;101003.19;4958140;28;20024;-77
2022/07/11 06:44:42;;;;;;;10.40;5.80;;;;;;;21.90;100.00;101014.16;4956552;28;20118;-76
2022/07/11 06:47:28;;;;;;;6.88;5.35;;;;;;;21.84;100.00;101013.69;4958379;28;20050;-76
2022/07/11 06:50:14;;;;;;;9.50;4.95;;;;;;;21.94;100.00;101006.88;4957512;28;20042;-76
2022/07/11 06:52:59;;;;;;;10.65;6.88;;;;;;;22.05;100.00;101009.72;4957857;28;20465;-77
2022/07/11 06:55:45;;;;;;;13.02;5.10;;;;;;;21.60;100.00;101004.41;4958022;28;20027;-77
2022/07/11 06:58:31;;;;;;;6.95;5.45;;;;;;;22.06;100.00;101008.81;4957288;29;20066;-76
2022/07/11 07:01:17;;;;;;;7.63;5.10;;;;;;;22.44;100.00;101012.66;4943439;29;20028;-77
2022/07/11 07:04:04;;;;;;;8.60;4.75;;;;;;;22.46;100.00;101002.72;4957395;28;20055;-77
2022/07/11 07:06:50;;;;;;;6.03;4.60;;;;;;;22.93;100.00;100998.84;4957932;28;20113;-77
2022/07/11 07:09:36;;;;;;;6.47;4.70;;;;;;;22.43;100.00;100997.59;4956632;29;20030;-76
2022/07/11 07:12:21;;;;;;;5.30;4.80;;;;;;;22.44;100.00;101005.53;4957653;28;20054;-77
2022/07/11 07:15:09;;;;;;;5.68;4.60;;;;;;;22.73;100.00;101012.59;4957167;28;20486;-76
2022/07/11 07:17:54;;;;;;;5.93;4.72;;;;;;;23.36;100.00;101008.50;4945013;29;20091;-79
2022/07/11 07:20:40;;;;;;;6.20;5.32;;;;;;;23.11;100.00;101003.00;4957606;28;20385;-77
2022/07/11 07:23:26;;;;;;;9.48;6.90;;;;;;;23.39;100.00;101004.78;4943927;28;20069;-77
2022/07/11 07:26:12;;;;;;;12.88;8.52;;;;;;;23.35;100.00;101001.44;4956073;28;20051;-76
2022/07/11 07:28:58;;;;;;;7.28;4.53;;;;;;;23.64;100.00;101007.56;4956876;29;20046;-77
2022/07/11 07:31:43;;;;;;;4.82;3.90;;;;;;;23.74;100.00;101005.97;4955685;29;20059;-78
2022/07/11 07:34:29;;;;;;;7.43;4.18;;;;;;;23.38;100.00;100998.56;4956265;28;20035;-77
2022/07/11 07:37:15;;;;;;;9.35;4.50;;;;;;;24.16;100.00;101012.94;4942426;29;20425;-77
2022/07/11 07:40:01;;;;;;;6.57;4.03;;;;;;;23.61;100.00;101006.88;4956842;28;20027;-76
2022/07/11 07:42:46;;;;;;;7.80;4.43;;;;;;;24.04;100.00;101001.25;4945948;29;20046;-77
2022/07/11 07:45:32;;;;;;;6.68;4.35;;;;;;;24.41;100.00;101005.78;4961190;29;20090;-76
2022/07/11 07:48:18;;;;;;;4.30;3.45;;;;;;;24.56;100.00;101006.53;4958403;29;20094;-78
2022/07/11 07:51:04;;;;;;;7.45;3.97;;;;;;;25.26;100.00;101006.72;4942045;29;20348;-76
2022/07/11 07:53:50;;;;;;;5.78;3.92;;;;;;;23.76;100.00;100996.03;4956410;28;20118;-76
2022/07/11 07:56:36;;;;;;;7.63;3.53;;;;;;;24.38;100.00;101002.44;4955720;29;20042;-76
2022/07/11 07:59:24;;;;;;;5.68;3.38;;;;;;;24.66;100.00;101002.25;4942113;29;20051;-77
2022/07/11 08:02:10;;;;;;;5.53;4.25;;;;;;;25.07;100.00;100995.63;4955413;29;20031;-78
2022/07/11 08:04:56;;;;;;;9.73;5.00;;;;;;;24.94;100.00;101000.16;4954929;28;20035;-77
2022/07/11 08:07:41;;;;;;;4.15;3.70;;;;;;;24.91;100.00;100996.88;4957114;28;20023;-77
2022/07/11 08:10:27;;;;;;;6.90;3.60;;;;;;;25.38;100.00;100999.63;4960215;29;20031;-77
2022/07/11 08:13:13;;;;;;;8.05;3.45;;;;;;;26.14;94.83;100999.13;4959444;28;20354;-77
2022/07/11 08:16:00;;;;;;;4.85;3.15;;;;;;;26.11;89.93;101002.03;4946558;29;20035;-77
2022/07/11 08:18:46;;;;;;;6.10;3.42;;;;;;;26.14;87.89;100998.25;4960443;29;20027;-76
2022/07/11 08:21:33;;;;;;;6.65;3.10;;;;;;;25.47;88.96;100994.44;4959327;29;20038;-77
2022/07/11 08:24:19;;;;;;;7.55;3.35;;;;;;;26.42;86.68;100992.44;4946626;29;20032;-76
2022/07/11 08:27:04;;;;;;;7.93;2.80;;;;;;;26.20;83.77;100985.19;4959450;29;20055;-76
2022/07/11 08:29:50;;;;;;;7.05;3.15;;;;;;;26.97;79.91;100976.34;4959500;29;20476;-76
2022/07/11 08:32:40;;;;;;;5.32;2.90;;;;;;;27.40;76.63;100975.41;4945648;29;20027;-77
2022/07/11 08:35:26;;;;;;;9.32;2.85;;;;;;;27.44;76.73;100974.19;4946293;29;20377;-77
2022/07/11 08:38:12;;;;;;;5.32;2.90;;;;;;;27.78;73.65;100977.59;4959271;29;20039;-77
2022/07/11 08:40:58;;;;;;;3.30;3.00;;;;;;;27.54;75.17;100976.97;4958857;29;20037;-75
2022/07/11 08:43:44;;;;;;;4.35;2.85;;;;;;;27.79;70.91;100973.91;4959076;28;20023;-77
2022/07/11 08:46:31;;;;;;;3.33;2.50;;;;;;;26.80;74.78;100976.88;4961418;29;20035;-77
2022/07/11 08:49:18;;;;;;;6.85;3.03;;;;;;;27.16;73.40;100971.16;4964688;29;20034;-75
2022/07/11 08:52:07;;;;;;;3.55;2.60;;;;;;;28.23;68.70;100971.00;4963046;28;20035;-76
2022/07/11 08:54:52;;;;;;;3.90;2.72;;;;;;;28.12;64.16;100962.16;4948716;29;20106;-75
2022/07/11 08:57:38;;;;;;;8.13;2.55;;;;;;;28.53;60.94;100962.94;4965842;29;20031;-75
2022/07/11 09:00:25;;;;;;;4.55;2.65;;;;;;;28.86;57.65;100961.81;4965201;29;20019;-76
2022/07/11 09:03:15;;;;;;;6.53;3.15;;;;;;;28.60;55.30;100974.06;4963548;28;20019;-76
2022/07/11 09:06:02;;;;;;;6.25;3.15;;;;;;;28.10;56.03;100962.28;4963563;29;20031;-76
2022/07/11 09:08:47;;;;;;;4.28;2.58;;;;;;;28.48;56.94;100961.66;4949222;29;20023;-77
2022/07/11 09:11:51;;;;;;;5.95;3.00;;;;;;;27.98;57.27;100963.31;4962862;29;20069;-76
2022/07/11 09:14:37;;;;;;;3.75;2.75;;;;;;;28.74;56.39;100961.06;4963075;28;20024;-77
2022/07/11 09:17:28;;;;;;;4.63;2.65;;;;;;;28.72;53.34;100960.34;4947970;29;20047;-78
2022/07/11 09:20:14;;;;;;;6.07;2.55;;;;;;;28.07;54.88;100965.22;4958277;28;20023;-77
2022/07/11 09:26:04;;;;;;;6.05;5.30;;;;;;;26.45;62.31;100968.03;4958203;29;20054;-77
2022/07/11 09:29:06;;;;;;;5.13;3.10;;;;;;;27.47;59.59;100956.09;4959428;29;20026;-77
2022/07/11 09:31:51;;;;;;;4.60;3.17;;;;;;;27.78;55.48;100960.56;4958679;29;20043;-76
2022/07/11 09:34:38;;;;;;;5.45;2.80;;;;;;;27.99;55.51;100966.84;4958282;28;20414;-77
2022/07/11 09:37:41;;;;;;;5.03;2.80;;;;;;;27.35;55.61;100957.94;4959043;29;20035;-78
2022/07/11 09:40:27;;;;;;;4.05;2.60;;;;;;;27.80;53.92;100962.16;4945484;29;20027;-77
2022/07/11 09:43:14;;;;;;;5.88;2.55;;;;;;;28.23;54.34;100964.75;4958349;28;20027;-77
2022/07/11 09:46:08;;;;;;;4.00;2.40;;;;;;;28.71;51.19;100955.94;4957571;29;20089;-77
2022/07/11 09:48:54;;;;;;;4.53;2.25;;;;;;;27.90;52.35;100949.66;4944980;29;20027;-77
2022/07/11 09:51:40;;;;;;;3.20;2.33;;;;;;;27.84;51.66;100958.25;4945288;29;20038;-78
2022/07/11 09:54:26;;;;;;;8.25;3.20;;;;;;;27.59;53.24;100945.13;4959417;28;20381;-78
2022/07/11 09:57:12;;;;;;;6.03;2.75;;;;;;;27.41;53.04;100955.59;4957621;29;20466;-77
2022/07/11 09:59:59;;;;;;;3.88;2.40;;;;;;;27.35;54.23;100950.72;4958500;29;20031;-77
2022/07/11 10:02:45;;;;;;;5.10;2.47;;;;;;;27.88;52.82;100951.59;4944427;29;20031;-77
2022/07/11 10:05:32;;;;;;;3.83;2.60;;;;;;;28.41;50.60;100952.38;4945023;29;20035;-77
2022/07/11 10:08:18;;;;;;;5.78;2.13;;;;;;;27.10;51.13;100950.16;4957953;29;20035;-77
2022/07/11 10:11:04;;;;;;;6.80;3.10;;;;;;;27.53;52.32;100951.03;4957828;29;20046;-77
2022/07/11 10:13:50;;;;;;;9.98;2.42;;;;;;;27.61;50.75;100939.63;4957681;28;20027;-78
2022/07/11 10:16:52;;;;;;;4.30;2.42;;;;;;;27.42;50.59;100951.06;4958340;29;20090;-77
2022/07/11 10:20:02;;;;;;;2.72;1.95;;;;;;;28.07;49.69;100957.13;4957446;29;20041;-77
2022/07/11 10:22:58;;;;;;;5.20;2.10;;;;;;;28.85;48.85;100947.47;4958779;29;20094;-79
2022/07/11 10:26:35;;;;;;;2.95;2.00;;;;;;;29.23;46.33;100944.91;4957304;29;20031;-79
2022/07/11 10:29:51;;;;;;;1.63;1.52;;;;;;;29.35;45.10;100945.59;4918709;29;20043;-77
2022/07/11 10:32:59;;;;;;;2.35;1.77;;;;;;;29.17;44.38;100945.44;4917744;29;20047;-78
2022/07/11 10:35:46;;;;;;;5.82;1.77;;;;;;;28.32;44.73;100953.19;4957181;29;20397;-78
2022/07/11 10:38:32;;;;;;;6.38;1.70;;;;;;;27.48;47.28;100951.41;4960418;29;20098;-77
2022/07/11 10:41:22;;;;;;;3.50;1.88;;;;;;;27.49;48.00;100952.28;4959378;29;20514;-78
2022/07/11 10:44:07;;;;;;;3.33;1.95;;;;;;;27.22;48.32;100952.75;4956600;28;20042;-78
2022/07/11 10:46:54;;;;;;;3.97;2.10;;;;;;;27.62;46.36;100950.25;4957896;29;20054;-78
2022/07/11 10:49:51;;;;;;;3.20;1.88;;;;;;;27.52;44.72;100954.69;4956010;29;20035;-78
2022/07/11 10:52:39;;;;;;;4.82;1.92;;;;;;;27.26;46.67;100945.25;4944249;29;20106;-78
2022/07/11 10:55:35;;;;;;;8.88;6.30;;;;;;;27.54;46.86;100955.44;4956834;28;20038;-78
2022/07/11 10:58:31;;;;;;;5.95;2.40;;;;;;;28.33;45.73;100952.19;4964834;29;20031;-79
2022/07/11 11:01:17;;;;;;;3.25;1.60;;;;;;;28.69;43.57;100957.06;4943465;29;20086;-77
2022/07/11 11:04:41;;;;;;;2.92;1.60;;;;;;;28.54;42.89;100959.28;4956940;28;20031;-77
2022/07/11 11:07:44;;;;;;;8.00;1.60;;;;;;;28.11;44.08;100950.50;4956285;28;20416;-79
2022/07/11 11:10:30;;;;;;;4.45;1.50;;;;;;;28.53;43.18;100956.72;4943329;29;20142;-78
2022/07/11 11:13:15;;;;;;;4.53;1.52;;;;;;;28.33;41.92;100961.09;4955414;28;20039;-78
2022/07/11 11:16:02;;;;;;;5.95;1.60;;;;;;;28.40;42.38;100961.44;4956087;29;20031;-77
2022/07/11 11:18:48;;;;;;;4.25;1.63;;;;;;;27.88;43.75;100954.31;4943431;29;20027;-78
2022/07/11 11:21:34;;;;;;;3.88;1.73;;;;;;;27.68;45.08;100951.59;4956204;29;20524;-78
2022/07/11 11:24:20;;;;;;;7.20;1.73;;;;;;;28.46;43.16;100945.63;4956397;28;20031;-77
2022/07/11 11:27:18;;;;;;;7.55;1.73;;;;;;;29.06;42.35;100956.38;4942782;29;20054;-78
2022/07/11 11:30:05;;;;;;;11.13;1.58;;;;;;;29.01;41.33;100953.22;4956956;29;20353;-78
2022/07/11 11:32:51;;;;;;;5.90;1.60;;;;;;;29.27;41.16;100951.72;4955792;29;20050;-76
2022/07/11 11:35:37;;;;;;;3.63;1.73;;;;;;;28.59;41.06;100956.16;4956854;29;20171;-77
2022/07/11 11:38:23;;;;;;;7.78;2.05;;;;;;;29.38;41.31;100951.59;4956351;29;20350;-77
2022/07/11 11:41:09;;;;;;;5.55;1.63;;;;;;;29.19;40.42;100961.50;4942544;29;20199;-78
2022/07/11 11:43:57;;;;;;;12.02;2.10;;;;;;;29.16;40.43;100965.34;4955820;28;20078;-78
2022/07/11 11:46:43;;;;;;;19.50;16.08;;;;;;;28.49;41.70;100966.91;4956318;29;20173;-77
2022/07/11 11:49:40;;;;;;;4.78;1.33;;;;;;;28.86;41.09;100953.72;4942652;29;20034;-78
2022/07/11 11:52:32;;;;;;;9.05;1.77;;;;;;;28.82;40.48;100949.59;4943346;29;20073;-78
2022/07/11 11:55:18;;;;;;;6.90;1.15;;;;;;;28.75;39.69;100959.22;4956543;28;20125;-78
2022/07/11 11:58:04;;;;;;;3.10;1.40;;;;;;;28.22;39.43;100949.56;4956192;29;20482;-78
2022/07/11 12:00:56;;;;;;;4.78;1.50;;;;;;;27.91;39.67;100963.97;4955703;29;20031;-77
2022/07/11 12:03:57;;;;;;;5.70;1.70;;;;;;;28.85;39.09;100962.81;4955665;28;20054;-78
2022/07/11 12:06:49;;;;;;;7.82;1.50;;;;;;;28.59;38.02;100966.94;4956198;29;20110;-78
2022/07/11 12:09:47;;;;;;;2.83;1.35;;;;;;;28.43;38.26;100977.38;4955205;29;20170;-77
2022/07/11 12:12:45;;;;;;;10.50;1.50;;;;;;;28.78;38.60;100976.00;4954959;29;20027;-77
2022/07/11 12:16:39;;;;;;;5.68;1.40;;;;;;;28.90;38.75;100969.50;4955491;29;20031;-78
2022/07/11 12:18:41;;;;;;;7.93;1.30;;;;;;;28.99;37.42;100965.97;4955449;29;20038;-77
2022/07/11 12:21:29;;;;;;;3.65;1.30;;;;;;;28.43;37.52;100972.84;4955606;29;20079;-77
2022/07/11 12:24:20;;;;;;;5.55;1.48;;;;;;;28.74;38.18;100971.88;4956004;28;20031;-77
2022/07/11 12:27:06;;;;;;;4.93;1.42;;;;;;;28.76;37.64;100977.97;4955310;29;20397;-77
2022/07/11 12:29:52;;;;;;;7.57;1.40;;;;;;;28.56;36.47;100965.38;4954926;29;20223;-77
2022/07/11 12:32:38;;;;;;;4.20;1.30;;;;;;;29.12;36.72;100979.22;4955486;29;20031;-78
2022/07/11 12:35:23;;;;;;;4.78;1.30;;;;;;;28.77;36.51;100973.44;4955395;28;20059;-79
2022/07/11 12:38:09;;;;;;;2.05;1.10;;;;;;;29.05;37.41;100960.03;4955766;29;20504;-78
2022/07/11 12:41:14;;;;;;;5.95;1.52;;;;;;;29.10;35.67;100962.34;4955994;29;20027;-77
2022/07/11 12:47:05;;;;;;;4.30;1.30;;;;;;;29.25;35.11;100977.16;4955978;29;20552;-77
2022/07/11 12:49:51;;;;;;;3.92;1.30;;;;;;;29.07;34.82;100971.56;4955083;29;20042;-78
2022/07/11 12:52:38;;;;;;;4.10;1.30;;;;;;;29.09;34.88;100972.28;4955789;29;20035;-77
2022/07/11 12:55:29;;;;;;;4.38;1.20;;;;;;;28.82;35.86;100963.94;4957187;28;20461;-78
2022/07/11 12:58:18;;;;;;;5.57;1.23;;;;;;;29.11;36.66;100961.34;4959773;29;20101;-78
2022/07/11 13:01:04;;;;;;;5.35;1.63;;;;;;;29.04;36.22;100969.13;4944726;29;20033;-76
2022/07/11 13:03:49;;;;;;;7.75;1.80;;;;;;;29.19;36.73;100969.59;4958650;28;20023;-78